sensor_id;sensor_type;location;lat;lon;timestamp;P1;durP1;ratioP1;P2;durP2;ratioP2
18188;SDS011;9219;50.396;8.546;2023-11-19T00:00:34;4.90;;;3.43;;
18188;SDS011;9219;50.396;8.546;2023-11-19T00:03:01;4.30;;;3.30;;
18188;SDS011;9219;50.396;8.546;2023-11-19T00:05:29;3.43;;;2.57;;
18188;SDS011;9219;50.396;8.546;2023-11-19T00:07:56;4.30;;;3.53;;
18188;SDS011;9219;50.396;8.546;2023-11-19T00:10:23;5.57;;;3.57;;
18188;SDS011;9219;50.396;8.546;2023-11-19T00:12:51;4.73;;;3.27;;
18188;SDS011;9219;50.396;8.546;2023-11-19T00:15:19;4.23;;;3.23;;
18188;SDS011;9219;50.396;8.546;2023-11-19T00:22:51;6.40;;;3.07;;
18188;SDS011;9219;50.396;8.546;2023-11-19T00:25:19;2.80;;;2.40;;
18188;SDS011;9219;50.396;8.546;2023-11-19T00:27:47;3.10;;;2.53;;
18188;SDS011;9219;50.396;8.546;2023-11-19T00:30:16;3.40;;;2.80;;
18188;SDS011;9219;50.396;8.546;2023-11-19T00:32:44;5.03;;;3.03;;
18188;SDS011;9219;50.396;8.546;2023-11-19T00:35:12;3.67;;;2.90;;
18188;SDS011;9219;50.396;8.546;2023-11-19T00:37:43;4.07;;;2.77;;
18188;SDS011;9219;50.396;8.546;2023-11-19T00:43:12;3.03;;;2.60;;
18188;SDS011;9219;50.396;8.546;2023-11-19T00:45:39;2.87;;;2.30;;
18188;SDS011;9219;50.396;8.546;2023-11-19T00:48:06;3.57;;;2.83;;
18188;SDS011;9219;50.396;8.546;2023-11-19T00:50:36;3.77;;;2.73;;
18188;SDS011;9219;50.396;8.546;2023-11-19T00:53:09;3.43;;;2.97;;
18188;SDS011;9219;50.396;8.546;2023-11-19T00:55:36;2.60;;;2.17;;
18188;SDS011;9219;50.396;8.546;2023-11-19T00:58:13;3.63;;;2.73;;
18188;SDS011;9219;50.396;8.546;2023-11-19T01:08:06;3.17;;;2.70;;
18188;SDS011;9219;50.396;8.546;2023-11-19T01:10:33;2.27;;;2.07;;
18188;SDS011;9219;50.396;8.546;2023-11-19T01:13:03;3.13;;;2.53;;
18188;SDS011;9219;50.396;8.546;2023-11-19T01:15:31;2.03;;;1.83;;
18188;SDS011;9219;50.396;8.546;2023-11-19T01:17:59;2.70;;;2.00;;
18188;SDS011;9219;50.396;8.546;2023-11-19T01:20:27;2.60;;;2.00;;
18188;SDS011;9219;50.396;8.546;2023-11-19T01:22:54;2.20;;;2.00;;
18188;SDS011;9219;50.396;8.546;2023-11-19T01:28:02;3.00;;;1.63;;
18188;SDS011;9219;50.396;8.546;2023-11-19T01:30:30;2.00;;;1.50;;
18188;SDS011;9219;50.396;8.546;2023-11-19T01:32:57;2.17;;;1.50;;
18188;SDS011;9219;50.396;8.546;2023-11-19T01:35:24;1.40;;;1.30;;
18188;SDS011;9219;50.396;8.546;2023-11-19T01:37:53;1.90;;;1.70;;
18188;SDS011;9219;50.396;8.546;2023-11-19T01:40:20;1.50;;;1.40;;
18188;SDS011;9219;50.396;8.546;2023-11-19T01:42:48;1.60;;;1.50;;
18188;SDS011;9219;50.396;8.546;2023-11-19T01:45:21;1.50;;;1.40;;
18188;SDS011;9219;50.396;8.546;2023-11-19T01:52:58;1.67;;;1.57;;
18188;SDS011;9219;50.396;8.546;2023-11-19T01:55:26;1.77;;;1.33;;
18188;SDS011;9219;50.396;8.546;2023-11-19T01:57:54;1.30;;;1.10;;
18188;SDS011;9219;50.396;8.546;2023-11-19T02:00:25;1.23;;;1.13;;
18188;SDS011;9219;50.396;8.546;2023-11-19T02:02:53;1.10;;;1.00;;
18188;SDS011;9219;50.396;8.546;2023-11-19T02:05:27;3.97;;;1.33;;
18188;SDS011;9219;50.396;8.546;2023-11-19T02:08:10;1.47;;;1.30;;
18188;SDS011;9219;50.396;8.546;2023-11-19T02:15:45;1.47;;;1.37;;
18188;SDS011;9219;50.396;8.546;2023-11-19T02:18:19;1.83;;;1.43;;
18188;SDS011;9219;50.396;8.546;2023-11-19T02:20:47;2.83;;;1.40;;
18188;SDS011;9219;50.396;8.546;2023-11-19T02:23:16;3.10;;;1.00;;
18188;SDS011;9219;50.396;8.546;2023-11-19T02:25:46;1.80;;;1.53;;
18188;SDS011;9219;50.396;8.546;2023-11-19T02:28:22;1.63;;;1.30;;
18188;SDS011;9219;50.396;8.546;2023-11-19T02:30:49;2.60;;;1.90;;
18188;SDS011;9219;50.396;8.546;2023-11-19T02:36:13;1.57;;;1.30;;
18188;SDS011;9219;50.396;8.546;2023-11-19T02:38:40;1.60;;;1.47;;
18188;SDS011;9219;50.396;8.546;2023-11-19T02:41:08;3.17;;;1.67;;
18188;SDS011;9219;50.396;8.546;2023-11-19T02:43:36;1.77;;;1.37;;
18188;SDS011;9219;50.396;8.546;2023-11-19T02:46:05;2.07;;;1.43;;
18188;SDS011;9219;50.396;8.546;2023-11-19T02:48:37;1.80;;;1.40;;
18188;SDS011;9219;50.396;8.546;2023-11-19T02:51:04;1.47;;;1.27;;
18188;SDS011;9219;50.396;8.546;2023-11-19T02:57:10;1.50;;;1.40;;
18188;SDS011;9219;50.396;8.546;2023-11-19T02:59:47;1.47;;;1.37;;
18188;SDS011;9219;50.396;8.546;2023-11-19T03:02:15;2.30;;;1.50;;
18188;SDS011;9219;50.396;8.546;2023-11-19T03:04:43;1.07;;;0.97;;
18188;SDS011;9219;50.396;8.546;2023-11-19T03:07:11;1.30;;;1.20;;
18188;SDS011;9219;50.396;8.546;2023-11-19T03:09:39;1.23;;;1.00;;
18188;SDS011;9219;50.396;8.546;2023-11-19T03:12:07;3.10;;;1.10;;
18188;SDS011;9219;50.396;8.546;2023-11-19T03:17:14;2.03;;;1.43;;
18188;SDS011;9219;50.396;8.546;2023-11-19T03:19:41;1.93;;;1.60;;
18188;SDS011;9219;50.396;8.546;2023-11-19T03:22:08;2.13;;;1.50;;
18188;SDS011;9219;50.396;8.546;2023-11-19T03:24:36;1.57;;;1.47;;
18188;SDS011;9219;50.396;8.546;2023-11-19T03:27:04;2.40;;;1.60;;
18188;SDS011;9219;50.396;8.546;2023-11-19T03:29:31;1.63;;;1.20;;
18188;SDS011;9219;50.396;8.546;2023-11-19T03:31:58;1.73;;;1.63;;
18188;SDS011;9219;50.396;8.546;2023-11-19T03:34:26;1.33;;;1.23;;
18188;SDS011;9219;50.396;8.546;2023-11-19T03:41:57;1.90;;;1.60;;
18188;SDS011;9219;50.396;8.546;2023-11-19T03:44:26;2.00;;;1.73;;
18188;SDS011;9219;50.396;8.546;2023-11-19T03:46:54;1.43;;;1.13;;
18188;SDS011;9219;50.396;8.546;2023-11-19T03:49:22;1.87;;;1.50;;
18188;SDS011;9219;50.396;8.546;2023-11-19T03:51:50;7.93;;;1.93;;
18188;SDS011;9219;50.396;8.546;2023-11-19T03:54:17;1.20;;;1.10;;
18188;SDS011;9219;50.396;8.546;2023-11-19T03:56:44;1.60;;;1.33;;
18188;SDS011;9219;50.396;8.546;2023-11-19T04:04:11;2.53;;;1.47;;
18188;SDS011;9219;50.396;8.546;2023-11-19T04:06:40;2.27;;;1.50;;
18188;SDS011;9219;50.396;8.546;2023-11-19T04:09:07;2.20;;;1.33;;
18188;SDS011;9219;50.396;8.546;2023-11-19T04:11:35;2.50;;;1.50;;
18188;SDS011;9219;50.396;8.546;2023-11-19T04:14:02;1.40;;;1.20;;
18188;SDS011;9219;50.396;8.546;2023-11-19T04:16:29;1.70;;;0.93;;
18188;SDS011;9219;50.396;8.546;2023-11-19T04:18:56;1.13;;;1.03;;
18188;SDS011;9219;50.396;8.546;2023-11-19T04:21:24;1.20;;;1.10;;
18188;SDS011;9219;50.396;8.546;2023-11-19T04:31:17;0.97;;;0.90;;
18188;SDS011;9219;50.396;8.546;2023-11-19T04:33:44;2.77;;;1.30;;
18188;SDS011;9219;50.396;8.546;2023-11-19T04:36:11;0.90;;;0.90;;
18188;SDS011;9219;50.396;8.546;2023-11-19T04:38:39;1.20;;;1.10;;
18188;SDS011;9219;50.396;8.546;2023-11-19T04:41:07;2.77;;;0.90;;
18188;SDS011;9219;50.396;8.546;2023-11-19T04:43:34;2.03;;;1.30;;
18188;SDS011;9219;50.396;8.546;2023-11-19T04:46:03;2.77;;;1.40;;
18188;SDS011;9219;50.396;8.546;2023-11-19T04:48:31;4.13;;;1.00;;
18188;SDS011;9219;50.396;8.546;2023-11-19T04:56:18;1.00;;;0.90;;
18188;SDS011;9219;50.396;8.546;2023-11-19T04:58:48;1.30;;;1.20;;
18188;SDS011;9219;50.396;8.546;2023-11-19T05:01:15;1.10;;;1.00;;
18188;SDS011;9219;50.396;8.546;2023-11-19T05:03:43;2.93;;;1.00;;
18188;SDS011;9219;50.396;8.546;2023-11-19T05:06:11;2.87;;;0.90;;
18188;SDS011;9219;50.396;8.546;2023-11-19T05:08:38;1.17;;;1.07;;
18188;SDS011;9219;50.396;8.546;2023-11-19T05:11:05;0.80;;;0.80;;
18188;SDS011;9219;50.396;8.546;2023-11-19T05:16:16;0.70;;;0.70;;
18188;SDS011;9219;50.396;8.546;2023-11-19T05:18:44;0.90;;;0.77;;
18188;SDS011;9219;50.396;8.546;2023-11-19T05:21:11;2.70;;;0.80;;
18188;SDS011;9219;50.396;8.546;2023-11-19T05:23:38;2.10;;;0.90;;
18188;SDS011;9219;50.396;8.546;2023-11-19T05:26:07;0.97;;;0.70;;
18188;SDS011;9219;50.396;8.546;2023-11-19T05:28:34;0.87;;;0.87;;
18188;SDS011;9219;50.396;8.546;2023-11-19T05:31:01;0.80;;;0.80;;
18188;SDS011;9219;50.396;8.546;2023-11-19T05:33:30;0.80;;;0.80;;
18188;SDS011;9219;50.396;8.546;2023-11-19T05:39:06;0.80;;;0.80;;
18188;SDS011;9219;50.396;8.546;2023-11-19T05:41:33;0.97;;;0.70;;
18188;SDS011;9219;50.396;8.546;2023-11-19T05:44:00;1.30;;;1.20;;
18188;SDS011;9219;50.396;8.546;2023-11-19T05:46:27;1.13;;;1.03;;
18188;SDS011;9219;50.396;8.546;2023-11-19T05:48:54;2.70;;;0.70;;
18188;SDS011;9219;50.396;8.546;2023-11-19T05:51:21;1.27;;;1.17;;
18188;SDS011;9219;50.396;8.546;2023-11-19T05:53:49;1.20;;;1.10;;
18188;SDS011;9219;50.396;8.546;2023-11-19T06:01:21;4.50;;;1.23;;
18188;SDS011;9219;50.396;8.546;2023-11-19T06:03:48;0.93;;;0.87;;
18188;SDS011;9219;50.396;8.546;2023-11-19T06:06:16;2.60;;;0.93;;
18188;SDS011;9219;50.396;8.546;2023-11-19T06:08:43;2.57;;;1.20;;
18188;SDS011;9219;50.396;8.546;2023-11-19T06:11:10;4.33;;;1.20;;
18188;SDS011;9219;50.396;8.546;2023-11-19T06:13:40;0.90;;;0.63;;
18188;SDS011;9219;50.396;8.546;2023-11-19T06:16:08;1.00;;;0.90;;
18188;SDS011;9219;50.396;8.546;2023-11-19T06:18:37;1.37;;;0.73;;
18188;SDS011;9219;50.396;8.546;2023-11-19T06:21:33;1.10;;;0.70;;
18188;SDS011;9219;50.396;8.546;2023-11-19T06:24:01;3.43;;;0.60;;
18188;SDS011;9219;50.396;8.546;2023-11-19T06:26:29;4.57;;;1.23;;
18188;SDS011;9219;50.396;8.546;2023-11-19T06:28:56;1.23;;;1.10;;
18188;SDS011;9219;50.396;8.546;2023-11-19T06:31:26;4.27;;;0.93;;
18188;SDS011;9219;50.396;8.546;2023-11-19T06:33:53;2.03;;;1.00;;
18188;SDS011;9219;50.396;8.546;2023-11-19T06:36:20;6.20;;;1.10;;
18188;SDS011;9219;50.396;8.546;2023-11-19T06:38:50;0.70;;;0.60;;
18188;SDS011;9219;50.396;8.546;2023-11-19T06:41:30;1.20;;;0.80;;
18188;SDS011;9219;50.396;8.546;2023-11-19T06:43:57;4.93;;;1.93;;
18188;SDS011;9219;50.396;8.546;2023-11-19T06:46:25;6.77;;;1.27;;
18188;SDS011;9219;50.396;8.546;2023-11-19T06:48:52;5.17;;;1.10;;
18188;SDS011;9219;50.396;8.546;2023-11-19T06:51:20;6.43;;;1.27;;
18188;SDS011;9219;50.396;8.546;2023-11-19T06:53:47;10.93;;;1.93;;
18188;SDS011;9219;50.396;8.546;2023-11-19T06:56:18;9.30;;;1.80;;
18188;SDS011;9219;50.396;8.546;2023-11-19T07:01:25;2.73;;;1.00;;
18188;SDS011;9219;50.396;8.546;2023-11-19T07:03:53;2.37;;;1.10;;
18188;SDS011;9219;50.396;8.546;2023-11-19T07:06:25;2.37;;;1.20;;
18188;SDS011;9219;50.396;8.546;2023-11-19T07:08:55;4.33;;;1.13;;
18188;SDS011;9219;50.396;8.546;2023-11-19T07:11:23;5.73;;;1.43;;
18188;SDS011;9219;50.396;8.546;2023-11-19T07:13:50;5.60;;;1.43;;
18188;SDS011;9219;50.396;8.546;2023-11-19T07:16:18;5.63;;;1.57;;
18188;SDS011;9219;50.396;8.546;2023-11-19T07:21:29;7.90;;;1.47;;
18188;SDS011;9219;50.396;8.546;2023-11-19T07:23:56;1.23;;;0.80;;
18188;SDS011;9219;50.396;8.546;2023-11-19T07:26:23;10.70;;;1.23;;
18188;SDS011;9219;50.396;8.546;2023-11-19T07:28:51;5.57;;;1.07;;
18188;SDS011;9219;50.396;8.546;2023-11-19T07:31:18;6.33;;;1.90;;
18188;SDS011;9219;50.396;8.546;2023-11-19T07:33:46;1.97;;;1.20;;
18188;SDS011;9219;50.396;8.546;2023-11-19T07:36:14;1.07;;;0.83;;
18188;SDS011;9219;50.396;8.546;2023-11-19T07:38:42;5.93;;;1.10;;
18188;SDS011;9219;50.396;8.546;2023-11-19T07:46:13;6.50;;;1.20;;
18188;SDS011;9219;50.396;8.546;2023-11-19T07:48:41;8.83;;;1.20;;
18188;SDS011;9219;50.396;8.546;2023-11-19T07:51:10;2.97;;;1.07;;
18188;SDS011;9219;50.396;8.546;2023-11-19T07:53:37;3.63;;;1.83;;
18188;SDS011;9219;50.396;8.546;2023-11-19T07:56:05;4.23;;;1.60;;
18188;SDS011;9219;50.396;8.546;2023-11-19T07:58:34;5.23;;;3.17;;
18188;SDS011;9219;50.396;8.546;2023-11-19T08:01:01;9.33;;;1.60;;
18188;SDS011;9219;50.396;8.546;2023-11-19T08:06:31;2.70;;;0.97;;
18188;SDS011;9219;50.396;8.546;2023-11-19T08:09:02;7.00;;;1.53;;
18188;SDS011;9219;50.396;8.546;2023-11-19T08:11:29;13.17;;;3.53;;
18188;SDS011;9219;50.396;8.546;2023-11-19T08:13:58;2.63;;;1.37;;
18188;SDS011;9219;50.396;8.546;2023-11-19T08:16:25;4.10;;;1.00;;
18188;SDS011;9219;50.396;8.546;2023-11-19T08:18:52;1.70;;;0.93;;
18188;SDS011;9219;50.396;8.546;2023-11-19T08:21:20;10.97;;;1.37;;
18188;SDS011;9219;50.396;8.546;2023-11-19T08:23:49;6.80;;;1.40;;
18188;SDS011;9219;50.396;8.546;2023-11-19T08:31:16;9.33;;;2.50;;
18188;SDS011;9219;50.396;8.546;2023-11-19T08:33:44;7.73;;;1.47;;
18188;SDS011;9219;50.396;8.546;2023-11-19T08:36:15;5.50;;;1.30;;
18188;SDS011;9219;50.396;8.546;2023-11-19T08:38:44;8.40;;;2.70;;
18188;SDS011;9219;50.396;8.546;2023-11-19T08:41:12;9.67;;;1.67;;
18188;SDS011;9219;50.396;8.546;2023-11-19T08:43:39;9.10;;;2.13;;
18188;SDS011;9219;50.396;8.546;2023-11-19T08:46:11;11.60;;;1.83;;
18188;SDS011;9219;50.396;8.546;2023-11-19T08:48:39;5.83;;;1.93;;
18188;SDS011;9219;50.396;8.546;2023-11-19T08:56:11;5.67;;;1.50;;
18188;SDS011;9219;50.396;8.546;2023-11-19T08:58:39;7.83;;;1.73;;
18188;SDS011;9219;50.396;8.546;2023-11-19T09:01:07;7.50;;;2.03;;
18188;SDS011;9219;50.396;8.546;2023-11-19T09:03:35;8.43;;;2.00;;
18188;SDS011;9219;50.396;8.546;2023-11-19T09:06:03;8.17;;;2.10;;
18188;SDS011;9219;50.396;8.546;2023-11-19T09:08:31;9.33;;;2.00;;
18188;SDS011;9219;50.396;8.546;2023-11-19T09:10:58;3.27;;;1.77;;
18188;SDS011;9219;50.396;8.546;2023-11-19T09:16:09;6.27;;;1.87;;
18188;SDS011;9219;50.396;8.546;2023-11-19T09:18:38;5.77;;;1.77;;
18188;SDS011;9219;50.396;8.546;2023-11-19T09:21:06;9.47;;;2.10;;
18188;SDS011;9219;50.396;8.546;2023-11-19T09:23:33;8.73;;;2.70;;
18188;SDS011;9219;50.396;8.546;2023-11-19T09:26:05;4.83;;;2.17;;
18188;SDS011;9219;50.396;8.546;2023-11-19T09:28:32;13.40;;;1.87;;
18188;SDS011;9219;50.396;8.546;2023-11-19T09:30:59;7.57;;;1.70;;
18188;SDS011;9219;50.396;8.546;2023-11-19T09:36:06;19.40;;;2.20;;
18188;SDS011;9219;50.396;8.546;2023-11-19T09:38:34;9.07;;;1.83;;
18188;SDS011;9219;50.396;8.546;2023-11-19T09:41:04;7.73;;;1.83;;
18188;SDS011;9219;50.396;8.546;2023-11-19T09:43:34;8.60;;;2.07;;
18188;SDS011;9219;50.396;8.546;2023-11-19T09:46:04;7.73;;;1.73;;
18188;SDS011;9219;50.396;8.546;2023-11-19T10:10:07;12.57;;;3.07;;
18188;SDS011;9219;50.396;8.546;2023-11-19T10:15:52;10.37;;;2.70;;
18188;SDS011;9219;50.396;8.546;2023-11-19T10:18:46;9.03;;;2.60;;
18188;SDS011;9219;50.396;8.546;2023-11-19T10:22:01;13.47;;;3.13;;
18188;SDS011;9219;50.396;8.546;2023-11-19T10:24:46;8.50;;;2.17;;
18188;SDS011;9219;50.396;8.546;2023-11-19T10:30:42;10.10;;;1.97;;
18188;SDS011;9219;50.396;8.546;2023-11-19T10:33:25;19.60;;;3.37;;
18188;SDS011;9219;50.396;8.546;2023-11-19T10:36:12;12.20;;;2.60;;
18188;SDS011;9219;50.396;8.546;2023-11-19T10:38:55;8.10;;;2.60;;
18188;SDS011;9219;50.396;8.546;2023-11-19T10:41:26;10.90;;;2.77;;
18188;SDS011;9219;50.396;8.546;2023-11-19T10:44:11;9.87;;;2.00;;
18188;SDS011;9219;50.396;8.546;2023-11-19T10:50:15;10.47;;;1.83;;
18188;SDS011;9219;50.396;8.546;2023-11-19T10:58:33;12.33;;;2.63;;
18188;SDS011;9219;50.396;8.546;2023-11-19T11:01:04;16.87;;;2.63;;
18188;SDS011;9219;50.396;8.546;2023-11-19T11:03:38;10.70;;;2.03;;
18188;SDS011;9219;50.396;8.546;2023-11-19T11:06:07;8.47;;;2.97;;
18188;SDS011;9219;50.396;8.546;2023-11-19T11:08:36;6.23;;;1.77;;
18188;SDS011;9219;50.396;8.546;2023-11-19T11:11:05;13.77;;;3.33;;
18188;SDS011;9219;50.396;8.546;2023-11-19T11:13:34;11.93;;;2.20;;
18188;SDS011;9219;50.396;8.546;2023-11-19T11:18:48;9.43;;;3.37;;
18188;SDS011;9219;50.396;8.546;2023-11-19T11:21:17;8.90;;;2.40;;
18188;SDS011;9219;50.396;8.546;2023-11-19T11:24:09;10.80;;;2.47;;
18188;SDS011;9219;50.396;8.546;2023-11-19T11:27:28;10.43;;;2.03;;
18188;SDS011;9219;50.396;8.546;2023-11-19T11:30:28;11.77;;;3.07;;
18188;SDS011;9219;50.396;8.546;2023-11-19T11:33:05;12.80;;;3.83;;
18188;SDS011;9219;50.396;8.546;2023-11-19T11:40:45;13.00;;;3.00;;
18188;SDS011;9219;50.396;8.546;2023-11-19T11:43:45;11.40;;;2.10;;
18188;SDS011;9219;50.396;8.546;2023-11-19T11:49:23;13.03;;;2.63;;
18188;SDS011;9219;50.396;8.546;2023-11-19T11:52:02;15.17;;;2.77;;
18188;SDS011;9219;50.396;8.546;2023-11-19T11:54:30;11.13;;;2.63;;
18188;SDS011;9219;50.396;8.546;2023-11-19T11:57:08;16.23;;;3.40;;
18188;SDS011;9219;50.396;8.546;2023-11-19T12:03:31;10.17;;;3.33;;
18188;SDS011;9219;50.396;8.546;2023-11-19T12:05:58;13.93;;;2.23;;
18188;SDS011;9219;50.396;8.546;2023-11-19T12:08:27;9.10;;;2.23;;
18188;SDS011;9219;50.396;8.546;2023-11-19T12:10:55;23.23;;;2.80;;
18188;SDS011;9219;50.396;8.546;2023-11-19T12:13:42;10.60;;;2.93;;
18188;SDS011;9219;50.396;8.546;2023-11-19T12:16:14;17.10;;;3.63;;
18188;SDS011;9219;50.396;8.546;2023-11-19T12:18:42;18.57;;;3.30;;
18188;SDS011;9219;50.396;8.546;2023-11-19T12:21:09;17.20;;;2.30;;
18188;SDS011;9219;50.396;8.546;2023-11-19T12:23:59;11.67;;;2.93;;
18188;SDS011;9219;50.396;8.546;2023-11-19T12:26:33;11.93;;;2.77;;
18188;SDS011;9219;50.396;8.546;2023-11-19T12:29:01;15.43;;;2.50;;
18188;SDS011;9219;50.396;8.546;2023-11-19T12:31:34;13.37;;;3.47;;
18188;SDS011;9219;50.396;8.546;2023-11-19T12:34:06;14.93;;;3.37;;
18188;SDS011;9219;50.396;8.546;2023-11-19T12:36:38;8.97;;;2.37;;
18188;SDS011;9219;50.396;8.546;2023-11-19T12:39:08;10.90;;;2.33;;
18188;SDS011;9219;50.396;8.546;2023-11-19T12:44:48;8.90;;;2.43;;
18188;SDS011;9219;50.396;8.546;2023-11-19T12:47:21;8.57;;;2.37;;
18188;SDS011;9219;50.396;8.546;2023-11-19T12:49:55;13.23;;;2.60;;
18188;SDS011;9219;50.396;8.546;2023-11-19T12:52:22;12.77;;;2.23;;
18188;SDS011;9219;50.396;8.546;2023-11-19T12:54:49;12.87;;;3.03;;
18188;SDS011;9219;50.396;8.546;2023-11-19T12:57:16;13.23;;;2.17;;
18188;SDS011;9219;50.396;8.546;2023-11-19T12:59:55;13.67;;;3.17;;
18188;SDS011;9219;50.396;8.546;2023-11-19T13:08:45;8.33;;;1.73;;
18188;SDS011;9219;50.396;8.546;2023-11-19T13:11:14;7.67;;;2.03;;
18188;SDS011;9219;50.396;8.546;2023-11-19T13:13:54;15.90;;;2.87;;
18188;SDS011;9219;50.396;8.546;2023-11-19T13:16:22;7.33;;;1.50;;
18188;SDS011;9219;50.396;8.546;2023-11-19T13:18:49;11.77;;;2.10;;
18188;SDS011;9219;50.396;8.546;2023-11-19T13:21:17;6.43;;;2.20;;
18188;SDS011;9219;50.396;8.546;2023-11-19T13:23:46;3.27;;;1.60;;
18188;SDS011;9219;50.396;8.546;2023-11-19T13:29:57;8.07;;;2.13;;
18188;SDS011;9219;50.396;8.546;2023-11-19T13:32:25;8.93;;;1.63;;
18188;SDS011;9219;50.396;8.546;2023-11-19T13:34:52;4.83;;;1.27;;
18188;SDS011;9219;50.396;8.546;2023-11-19T13:37:20;12.00;;;2.70;;
18188;SDS011;9219;50.396;8.546;2023-11-19T13:39:47;6.83;;;1.60;;
18188;SDS011;9219;50.396;8.546;2023-11-19T13:42:15;9.13;;;2.00;;
18188;SDS011;9219;50.396;8.546;2023-11-19T13:44:43;12.00;;;3.13;;
18188;SDS011;9219;50.396;8.546;2023-11-19T13:47:11;15.90;;;3.90;;
18188;SDS011;9219;50.396;8.546;2023-11-19T13:54:44;18.83;;;2.43;;
18188;SDS011;9219;50.396;8.546;2023-11-19T13:57:11;5.77;;;1.67;;
18188;SDS011;9219;50.396;8.546;2023-11-19T13:59:39;9.87;;;2.07;;
18188;SDS011;9219;50.396;8.546;2023-11-19T14:02:06;10.27;;;2.23;;
18188;SDS011;9219;50.396;8.546;2023-11-19T14:04:34;8.73;;;1.50;;
18188;SDS011;9219;50.396;8.546;2023-11-19T14:07:01;6.87;;;1.60;;
18188;SDS011;9219;50.396;8.546;2023-11-19T14:09:29;11.03;;;2.60;;
18188;SDS011;9219;50.396;8.546;2023-11-19T14:15:40;9.67;;;1.83;;
18188;SDS011;9219;50.396;8.546;2023-11-19T14:18:09;11.53;;;2.00;;
18188;SDS011;9219;50.396;8.546;2023-11-19T14:20:36;6.30;;;1.47;;
18188;SDS011;9219;50.396;8.546;2023-11-19T14:23:04;5.43;;;2.13;;
18188;SDS011;9219;50.396;8.546;2023-11-19T14:25:31;5.63;;;2.30;;
18188;SDS011;9219;50.396;8.546;2023-11-19T14:27:59;7.33;;;1.77;;
18188;SDS011;9219;50.396;8.546;2023-11-19T14:30:29;20.77;;;2.40;;
18188;SDS011;9219;50.396;8.546;2023-11-19T14:35:34;6.33;;;1.90;;
18188;SDS011;9219;50.396;8.546;2023-11-19T14:38:03;9.20;;;2.00;;
18188;SDS011;9219;50.396;8.546;2023-11-19T14:40:33;7.70;;;1.97;;
18188;SDS011;9219;50.396;8.546;2023-11-19T14:43:02;9.90;;;1.57;;
18188;SDS011;9219;50.396;8.546;2023-11-19T14:45:30;13.30;;;2.67;;
18188;SDS011;9219;50.396;8.546;2023-11-19T14:48:07;6.67;;;1.83;;
18188;SDS011;9219;50.396;8.546;2023-11-19T14:50:36;8.17;;;1.50;;
18188;SDS011;9219;50.396;8.546;2023-11-19T14:53:03;10.87;;;1.57;;
18188;SDS011;9219;50.396;8.546;2023-11-19T15:01:32;7.50;;;1.53;;
18188;SDS011;9219;50.396;8.546;2023-11-19T15:03:59;10.57;;;1.67;;
18188;SDS011;9219;50.396;8.546;2023-11-19T15:06:31;4.47;;;1.53;;
18188;SDS011;9219;50.396;8.546;2023-11-19T15:08:59;7.83;;;1.57;;
18188;SDS011;9219;50.396;8.546;2023-11-19T15:11:26;9.13;;;2.23;;
18188;SDS011;9219;50.396;8.546;2023-11-19T15:13:53;3.73;;;1.70;;
18188;SDS011;9219;50.396;8.546;2023-11-19T15:16:20;11.83;;;2.27;;
18188;SDS011;9219;50.396;8.546;2023-11-19T15:23:14;8.97;;;1.90;;
18188;SDS011;9219;50.396;8.546;2023-11-19T15:25:41;9.73;;;2.23;;
18188;SDS011;9219;50.396;8.546;2023-11-19T15:28:08;10.60;;;2.53;;
18188;SDS011;9219;50.396;8.546;2023-11-19T15:30:36;15.23;;;2.00;;
18188;SDS011;9219;50.396;8.546;2023-11-19T15:33:03;7.97;;;1.50;;
18188;SDS011;9219;50.396;8.546;2023-11-19T15:35:30;9.00;;;1.80;;
18188;SDS011;9219;50.396;8.546;2023-11-19T15:38:00;10.17;;;2.60;;
18188;SDS011;9219;50.396;8.546;2023-11-19T15:43:08;14.13;;;1.97;;
18188;SDS011;9219;50.396;8.546;2023-11-19T15:45:35;8.90;;;2.60;;
18188;SDS011;9219;50.396;8.546;2023-11-19T15:48:04;9.37;;;2.03;;
18188;SDS011;9219;50.396;8.546;2023-11-19T15:50:32;8.87;;;2.30;;
18188;SDS011;9219;50.396;8.546;2023-11-19T15:52:59;5.63;;;1.70;;
18188;SDS011;9219;50.396;8.546;2023-11-19T15:55:27;12.23;;;1.87;;
18188;SDS011;9219;50.396;8.546;2023-11-19T15:57:54;8.87;;;1.70;;
18188;SDS011;9219;50.396;8.546;2023-11-19T16:03:50;15.20;;;2.47;;
18188;SDS011;9219;50.396;8.546;2023-11-19T16:06:18;6.40;;;1.27;;
18188;SDS011;9219;50.396;8.546;2023-11-19T16:08:46;10.43;;;2.20;;
18188;SDS011;9219;50.396;8.546;2023-11-19T16:11:14;10.90;;;2.13;;
18188;SDS011;9219;50.396;8.546;2023-11-19T16:13:41;8.30;;;2.00;;
18188;SDS011;9219;50.396;8.546;2023-11-19T16:16:08;9.57;;;2.10;;
18188;SDS011;9219;50.396;8.546;2023-11-19T16:18:37;15.40;;;3.30;;
18188;SDS011;9219;50.396;8.546;2023-11-19T16:23:48;6.47;;;1.60;;
18188;SDS011;9219;50.396;8.546;2023-11-19T16:26:15;9.83;;;1.83;;
18188;SDS011;9219;50.396;8.546;2023-11-19T16:28:43;11.53;;;2.33;;
18188;SDS011;9219;50.396;8.546;2023-11-19T16:31:10;13.27;;;1.83;;
18188;SDS011;9219;50.396;8.546;2023-11-19T16:33:37;8.30;;;1.77;;
18188;SDS011;9219;50.396;8.546;2023-11-19T16:36:05;12.90;;;2.03;;
18188;SDS011;9219;50.396;8.546;2023-11-19T16:38:34;7.43;;;3.07;;
18188;SDS011;9219;50.396;8.546;2023-11-19T16:43:43;6.20;;;1.73;;
18188;SDS011;9219;50.396;8.546;2023-11-19T16:46:10;6.50;;;1.50;;
18188;SDS011;9219;50.396;8.546;2023-11-19T16:48:37;4.73;;;1.37;;
18188;SDS011;9219;50.396;8.546;2023-11-19T16:51:08;9.97;;;1.63;;
18188;SDS011;9219;50.396;8.546;2023-11-19T16:53:43;6.60;;;2.07;;
18188;SDS011;9219;50.396;8.546;2023-11-19T16:56:11;10.23;;;2.23;;
18188;SDS011;9219;50.396;8.546;2023-11-19T16:58:39;8.17;;;1.97;;
18188;SDS011;9219;50.396;8.546;2023-11-19T17:01:09;14.20;;;2.00;;
18188;SDS011;9219;50.396;8.546;2023-11-19T17:08:41;13.73;;;2.03;;
18188;SDS011;9219;50.396;8.546;2023-11-19T17:11:08;13.93;;;2.33;;
18188;SDS011;9219;50.396;8.546;2023-11-19T17:13:35;8.13;;;2.17;;
18188;SDS011;9219;50.396;8.546;2023-11-19T17:16:03;12.87;;;3.43;;
18188;SDS011;9219;50.396;8.546;2023-11-19T17:18:33;16.93;;;2.60;;
18188;SDS011;9219;50.396;8.546;2023-11-19T17:21:00;13.37;;;2.90;;
18188;SDS011;9219;50.396;8.546;2023-11-19T17:23:28;11.33;;;1.80;;
18188;SDS011;9219;50.396;8.546;2023-11-19T17:29:39;12.03;;;2.13;;
18188;SDS011;9219;50.396;8.546;2023-11-19T17:32:07;10.37;;;2.77;;
18188;SDS011;9219;50.396;8.546;2023-11-19T17:34:34;7.77;;;2.03;;
18188;SDS011;9219;50.396;8.546;2023-11-19T17:37:01;10.50;;;2.17;;
18188;SDS011;9219;50.396;8.546;2023-11-19T17:39:28;10.50;;;2.63;;
18188;SDS011;9219;50.396;8.546;2023-11-19T17:41:55;10.23;;;2.13;;
18188;SDS011;9219;50.396;8.546;2023-11-19T17:44:23;8.57;;;2.30;;
18188;SDS011;9219;50.396;8.546;2023-11-19T17:54:07;9.20;;;2.80;;
18188;SDS011;9219;50.396;8.546;2023-11-19T17:56:36;10.77;;;2.30;;
18188;SDS011;9219;50.396;8.546;2023-11-19T17:59:03;7.20;;;1.90;;
18188;SDS011;9219;50.396;8.546;2023-11-19T18:01:30;17.20;;;2.10;;
18188;SDS011;9219;50.396;8.546;2023-11-19T18:03:58;12.33;;;3.20;;
18188;SDS011;9219;50.396;8.546;2023-11-19T18:06:25;11.50;;;2.43;;
18188;SDS011;9219;50.396;8.546;2023-11-19T18:08:52;10.57;;;2.27;;
18188;SDS011;9219;50.396;8.546;2023-11-19T18:14:49;7.30;;;1.63;;
18188;SDS011;9219;50.396;8.546;2023-11-19T18:17:20;12.87;;;3.30;;
18188;SDS011;9219;50.396;8.546;2023-11-19T18:19:47;10.13;;;1.83;;
18188;SDS011;9219;50.396;8.546;2023-11-19T18:22:14;16.70;;;2.50;;
18188;SDS011;9219;50.396;8.546;2023-11-19T18:24:41;13.10;;;2.27;;
18188;SDS011;9219;50.396;8.546;2023-11-19T18:27:09;20.80;;;2.87;;
18188;SDS011;9219;50.396;8.546;2023-11-19T18:29:36;14.77;;;2.27;;
18188;SDS011;9219;50.396;8.546;2023-11-19T18:32:05;12.30;;;2.20;;
18188;SDS011;9219;50.396;8.546;2023-11-19T18:34:46;13.90;;;2.77;;
18188;SDS011;9219;50.396;8.546;2023-11-19T18:37:14;19.27;;;2.80;;
18188;SDS011;9219;50.396;8.546;2023-11-19T18:39:41;10.10;;;1.80;;
18188;SDS011;9219;50.396;8.546;2023-11-19T18:42:08;12.10;;;3.23;;
18188;SDS011;9219;50.396;8.546;2023-11-19T18:44:36;12.20;;;3.60;;
18188;SDS011;9219;50.396;8.546;2023-11-19T18:47:03;10.27;;;1.93;;
18188;SDS011;9219;50.396;8.546;2023-11-19T18:49:31;7.20;;;2.07;;